sensor_id;sensor_type;location;lat;lon;timestamp;P1;durP1;ratioP1;P2;durP2;ratioP2
11535;SDS011;5824;49.336;8.652;2022-09-28T00:01:49;2.60;;;1.40;;
11535;SDS011;5824;49.336;8.652;2022-09-28T00:04:15;3.40;;;1.50;;
11535;SDS011;5824;49.336;8.652;2022-09-28T00:06:40;2.33;;;1.20;;
11535;SDS011;5824;49.336;8.652;2022-09-28T00:09:06;4.50;;;1.20;;
11535;SDS011;5824;49.336;8.652;2022-09-28T00:11:31;2.37;;;1.10;;
11535;SDS011;5824;49.336;8.652;2022-09-28T00:13:58;2.13;;;1.20;;
11535;SDS011;5824;49.336;8.652;2022-09-28T00:16:27;2.27;;;1.10;;
11535;SDS011;5824;49.336;8.652;2022-09-28T00:18:57;2.53;;;1.13;;
11535;SDS011;5824;49.336;8.652;2022-09-28T00:21:24;2.70;;;1.30;;
11535;SDS011;5824;49.336;8.652;2022-09-28T00:23:52;2.60;;;1.37;;
11535;SDS011;5824;49.336;8.652;2022-09-28T00:26:55;2.33;;;1.13;;
11535;SDS011;5824;49.336;8.652;2022-09-28T00:31:53;3.73;;;1.30;;
11535;SDS011;5824;49.336;8.652;2022-09-28T00:34:23;1.87;;;1.30;;
11535;SDS011;5824;49.336;8.652;2022-09-28T00:36:50;2.60;;;1.50;;
11535;SDS011;5824;49.336;8.652;2022-09-28T00:39:16;3.00;;;1.57;;
11535;SDS011;5824;49.336;8.652;2022-09-28T00:41:42;3.00;;;1.40;;
11535;SDS011;5824;49.336;8.652;2022-09-28T00:46:51;3.33;;;1.53;;
11535;SDS011;5824;49.336;8.652;2022-09-28T00:52:13;4.50;;;1.80;;
11535;SDS011;5824;49.336;8.652;2022-09-28T00:54:42;1.70;;;1.30;;
11535;SDS011;5824;49.336;8.652;2022-09-28T00:57:10;2.60;;;1.53;;
11535;SDS011;5824;49.336;8.652;2022-09-28T00:59:37;2.20;;;1.50;;
11535;SDS011;5824;49.336;8.652;2022-09-28T01:02:03;3.20;;;1.50;;
11535;SDS011;5824;49.336;8.652;2022-09-28T01:04:29;3.50;;;1.70;;
11535;SDS011;5824;49.336;8.652;2022-09-28T01:06:55;7.67;;;1.40;;
11535;SDS011;5824;49.336;8.652;2022-09-28T01:09:22;2.87;;;1.50;;
11535;SDS011;5824;49.336;8.652;2022-09-28T01:11:49;4.13;;;1.60;;
11535;SDS011;5824;49.336;8.652;2022-09-28T01:14:15;2.63;;;1.70;;
11535;SDS011;5824;49.336;8.652;2022-09-28T01:16:51;4.50;;;1.30;;
11535;SDS011;5824;49.336;8.652;2022-09-28T01:27:36;3.83;;;1.50;;
11535;SDS011;5824;49.336;8.652;2022-09-28T01:30:16;5.83;;;1.70;;
11535;SDS011;5824;49.336;8.652;2022-09-28T01:32:48;4.20;;;1.67;;
11535;SDS011;5824;49.336;8.652;2022-09-28T01:35:31;6.23;;;1.80;;
11535;SDS011;5824;49.336;8.652;2022-09-28T01:38:09;4.43;;;1.90;;
11535;SDS011;5824;49.336;8.652;2022-09-28T01:40:39;6.93;;;1.40;;
11535;SDS011;5824;49.336;8.652;2022-09-28T01:43:07;2.30;;;1.60;;
11535;SDS011;5824;49.336;8.652;2022-09-28T01:45:45;7.90;;;2.00;;
11535;SDS011;5824;49.336;8.652;2022-09-28T01:48:16;6.03;;;2.50;;
11535;SDS011;5824;49.336;8.652;2022-09-28T01:50:47;2.23;;;1.80;;
11535;SDS011;5824;49.336;8.652;2022-09-28T01:53:28;1.80;;;1.60;;
11535;SDS011;5824;49.336;8.652;2022-09-28T01:56:02;4.13;;;1.97;;
11535;SDS011;5824;49.336;8.652;2022-09-28T01:59:15;4.43;;;1.80;;
11535;SDS011;5824;49.336;8.652;2022-09-28T02:01:28;3.10;;;1.70;;
11535;SDS011;5824;49.336;8.652;2022-09-28T02:04:01;3.80;;;1.57;;
11535;SDS011;5824;49.336;8.652;2022-09-28T02:06:45;4.57;;;1.80;;
11535;SDS011;5824;49.336;8.652;2022-09-28T02:09:20;2.73;;;1.60;;
11535;SDS011;5824;49.336;8.652;2022-09-28T02:11:51;3.00;;;2.03;;
11535;SDS011;5824;49.336;8.652;2022-09-28T02:14:22;4.47;;;2.00;;
11535;SDS011;5824;49.336;8.652;2022-09-28T02:16:51;4.60;;;2.03;;
11535;SDS011;5824;49.336;8.652;2022-09-28T02:19:18;5.23;;;2.00;;
11535;SDS011;5824;49.336;8.652;2022-09-28T02:24:22;3.60;;;1.80;;
11535;SDS011;5824;49.336;8.652;2022-09-28T02:27:11;5.73;;;2.20;;
11535;SDS011;5824;49.336;8.652;2022-09-28T02:29:53;4.67;;;2.00;;
11535;SDS011;5824;49.336;8.652;2022-09-28T02:32:19;8.93;;;2.03;;
11535;SDS011;5824;49.336;8.652;2022-09-28T02:34:45;3.23;;;1.90;;
11535;SDS011;5824;49.336;8.652;2022-09-28T02:37:10;4.00;;;2.20;;
11535;SDS011;5824;49.336;8.652;2022-09-28T02:39:36;2.93;;;2.00;;
11535;SDS011;5824;49.336;8.652;2022-09-28T02:42:07;3.50;;;2.13;;
11535;SDS011;5824;49.336;8.652;2022-09-28T02:45:04;3.60;;;2.40;;
11535;SDS011;5824;49.336;8.652;2022-09-28T02:47:43;3.40;;;2.13;;
11535;SDS011;5824;49.336;8.652;2022-09-28T02:59:02;2.23;;;1.40;;
11535;SDS011;5824;49.336;8.652;2022-09-28T03:04:29;5.87;;;1.30;;
11535;SDS011;5824;49.336;8.652;2022-09-28T03:09:49;3.33;;;1.40;;
11535;SDS011;5824;49.336;8.652;2022-09-28T03:12:24;2.77;;;1.60;;
11535;SDS011;5824;49.336;8.652;2022-09-28T03:15:09;4.20;;;1.50;;
11535;SDS011;5824;49.336;8.652;2022-09-28T03:17:37;2.33;;;1.60;;
11535;SDS011;5824;49.336;8.652;2022-09-28T03:20:03;2.20;;;1.40;;
11535;SDS011;5824;49.336;8.652;2022-09-28T03:22:29;4.60;;;1.60;;
11535;SDS011;5824;49.336;8.652;2022-09-28T03:24:54;2.70;;;1.57;;
11535;SDS011;5824;49.336;8.652;2022-09-28T03:27:20;2.10;;;1.43;;
11535;SDS011;5824;49.336;8.652;2022-09-28T03:29:45;1.93;;;1.27;;
11535;SDS011;5824;49.336;8.652;2022-09-28T03:32:11;2.00;;;1.40;;
11535;SDS011;5824;49.336;8.652;2022-09-28T03:34:36;2.07;;;1.70;;
11535;SDS011;5824;49.336;8.652;2022-09-28T03:37:02;6.37;;;1.60;;
11535;SDS011;5824;49.336;8.652;2022-09-28T03:39:28;3.37;;;1.40;;
11535;SDS011;5824;49.336;8.652;2022-09-28T03:41:53;3.77;;;1.60;;
11535;SDS011;5824;49.336;8.652;2022-09-28T03:44:19;7.30;;;1.30;;
11535;SDS011;5824;49.336;8.652;2022-09-28T03:46:45;4.60;;;2.10;;
11535;SDS011;5824;49.336;8.652;2022-09-28T03:49:10;2.50;;;1.33;;
11535;SDS011;5824;49.336;8.652;2022-09-28T03:51:36;2.50;;;1.30;;
11535;SDS011;5824;49.336;8.652;2022-09-28T03:54:02;1.47;;;1.30;;
11535;SDS011;5824;49.336;8.652;2022-09-28T03:56:27;1.43;;;1.33;;
11535;SDS011;5824;49.336;8.652;2022-09-28T03:58:53;3.10;;;1.50;;
11535;SDS011;5824;49.336;8.652;2022-09-28T04:01:18;6.33;;;2.00;;
11535;SDS011;5824;49.336;8.652;2022-09-28T04:03:44;3.00;;;1.90;;
11535;SDS011;5824;49.336;8.652;2022-09-28T04:06:11;3.00;;;1.60;;
11535;SDS011;5824;49.336;8.652;2022-09-28T04:08:36;1.93;;;1.30;;
11535;SDS011;5824;49.336;8.652;2022-09-28T04:11:02;2.20;;;1.40;;
11535;SDS011;5824;49.336;8.652;2022-09-28T04:13:28;3.57;;;1.50;;
11535;SDS011;5824;49.336;8.652;2022-09-28T04:15:54;3.10;;;1.40;;
11535;SDS011;5824;49.336;8.652;2022-09-28T04:18:21;1.87;;;1.60;;
11535;SDS011;5824;49.336;8.652;2022-09-28T04:20:56;2.20;;;1.50;;
11535;SDS011;5824;49.336;8.652;2022-09-28T04:23:23;1.33;;;1.20;;
11535;SDS011;5824;49.336;8.652;2022-09-28T04:25:52;2.23;;;1.40;;
11535;SDS011;5824;49.336;8.652;2022-09-28T04:28:17;1.70;;;1.40;;
11535;SDS011;5824;49.336;8.652;2022-09-28T04:31:01;4.67;;;1.80;;
11535;SDS011;5824;49.336;8.652;2022-09-28T04:33:27;2.70;;;1.60;;
11535;SDS011;5824;49.336;8.652;2022-09-28T04:35:53;7.10;;;1.80;;
11535;SDS011;5824;49.336;8.652;2022-09-28T04:38:19;3.20;;;1.47;;
11535;SDS011;5824;49.336;8.652;2022-09-28T04:40:47;2.77;;;1.40;;
11535;SDS011;5824;49.336;8.652;2022-09-28T04:43:13;6.97;;;1.70;;
11535;SDS011;5824;49.336;8.652;2022-09-28T04:45:38;11.53;;;1.80;;
11535;SDS011;5824;49.336;8.652;2022-09-28T04:48:05;7.23;;;1.93;;
11535;SDS011;5824;49.336;8.652;2022-09-28T04:50:31;3.07;;;1.47;;
11535;SDS011;5824;49.336;8.652;2022-09-28T04:52:58;1.50;;;1.30;;
11535;SDS011;5824;49.336;8.652;2022-09-28T04:55:24;3.47;;;1.80;;
11535;SDS011;5824;49.336;8.652;2022-09-28T04:57:52;4.57;;;1.70;;
11535;SDS011;5824;49.336;8.652;2022-09-28T05:00:18;3.90;;;1.83;;
11535;SDS011;5824;49.336;8.652;2022-09-28T05:02:44;2.40;;;1.83;;
11535;SDS011;5824;49.336;8.652;2022-09-28T05:05:09;3.37;;;1.90;;
11535;SDS011;5824;49.336;8.652;2022-09-28T05:07:35;3.37;;;1.60;;
11535;SDS011;5824;49.336;8.652;2022-09-28T05:10:00;2.73;;;1.90;;
11535;SDS011;5824;49.336;8.652;2022-09-28T05:12:26;5.17;;;1.67;;
11535;SDS011;5824;49.336;8.652;2022-09-28T05:14:51;3.33;;;1.80;;
11535;SDS011;5824;49.336;8.652;2022-09-28T05:17:17;3.97;;;2.40;;
11535;SDS011;5824;49.336;8.652;2022-09-28T05:19:42;4.27;;;2.20;;
11535;SDS011;5824;49.336;8.652;2022-09-28T05:22:08;4.77;;;1.90;;
11535;SDS011;5824;49.336;8.652;2022-09-28T05:24:38;3.33;;;2.10;;
11535;SDS011;5824;49.336;8.652;2022-09-28T05:27:04;5.50;;;2.03;;
11535;SDS011;5824;49.336;8.652;2022-09-28T05:29:30;4.10;;;2.30;;
11535;SDS011;5824;49.336;8.652;2022-09-28T05:31:55;6.80;;;2.23;;
11535;SDS011;5824;49.336;8.652;2022-09-28T05:34:22;3.37;;;2.10;;
11535;SDS011;5824;49.336;8.652;2022-09-28T05:36:47;8.30;;;2.17;;
11535;SDS011;5824;49.336;8.652;2022-09-28T05:39:13;5.20;;;2.70;;
11535;SDS011;5824;49.336;8.652;2022-09-28T05:41:38;4.03;;;2.30;;
11535;SDS011;5824;49.336;8.652;2022-09-28T05:44:04;3.47;;;2.30;;
11535;SDS011;5824;49.336;8.652;2022-09-28T05:46:29;3.00;;;2.23;;
11535;SDS011;5824;49.336;8.652;2022-09-28T05:48:55;5.80;;;2.63;;
11535;SDS011;5824;49.336;8.652;2022-09-28T05:51:20;8.77;;;2.90;;
11535;SDS011;5824;49.336;8.652;2022-09-28T05:53:48;2.90;;;2.37;;
11535;SDS011;5824;49.336;8.652;2022-09-28T05:56:14;8.40;;;2.60;;
11535;SDS011;5824;49.336;8.652;2022-09-28T05:58:39;3.20;;;2.40;;
11535;SDS011;5824;49.336;8.652;2022-09-28T06:01:04;7.03;;;2.93;;
11535;SDS011;5824;49.336;8.652;2022-09-28T06:03:30;5.90;;;2.80;;
11535;SDS011;5824;49.336;8.652;2022-09-28T06:05:58;4.80;;;2.70;;
11535;SDS011;5824;49.336;8.652;2022-09-28T06:08:25;5.30;;;3.30;;
11535;SDS011;5824;49.336;8.652;2022-09-28T06:10:50;5.67;;;3.00;;
11535;SDS011;5824;49.336;8.652;2022-09-28T06:13:16;4.40;;;2.77;;
11535;SDS011;5824;49.336;8.652;2022-09-28T06:15:41;3.97;;;2.70;;
11535;SDS011;5824;49.336;8.652;2022-09-28T06:18:09;7.57;;;2.90;;
11535;SDS011;5824;49.336;8.652;2022-09-28T06:20:38;5.30;;;3.23;;
11535;SDS011;5824;49.336;8.652;2022-09-28T06:23:10;6.20;;;3.17;;
11535;SDS011;5824;49.336;8.652;2022-09-28T06:25:36;4.00;;;2.90;;
11535;SDS011;5824;49.336;8.652;2022-09-28T06:28:04;6.97;;;3.50;;
11535;SDS011;5824;49.336;8.652;2022-09-28T06:30:32;4.70;;;3.30;;
11535;SDS011;5824;49.336;8.652;2022-09-28T06:32:59;3.60;;;2.80;;
11535;SDS011;5824;49.336;8.652;2022-09-28T06:35:26;4.83;;;3.00;;
11535;SDS011;5824;49.336;8.652;2022-09-28T06:37:54;5.30;;;3.00;;
11535;SDS011;5824;49.336;8.652;2022-09-28T06:40:20;5.70;;;3.30;;
11535;SDS011;5824;49.336;8.652;2022-09-28T06:45:21;6.87;;;3.30;;
11535;SDS011;5824;49.336;8.652;2022-09-28T06:47:51;4.13;;;3.03;;
11535;SDS011;5824;49.336;8.652;2022-09-28T06:50:21;6.10;;;3.17;;
11535;SDS011;5824;49.336;8.652;2022-09-28T06:52:48;6.80;;;3.47;;
11535;SDS011;5824;49.336;8.652;2022-09-28T06:55:15;7.60;;;3.50;;
11535;SDS011;5824;49.336;8.652;2022-09-28T06:57:41;5.60;;;3.40;;
11535;SDS011;5824;49.336;8.652;2022-09-28T07:00:06;9.13;;;3.57;;
11535;SDS011;5824;49.336;8.652;2022-09-28T07:02:32;7.20;;;3.40;;
11535;SDS011;5824;49.336;8.652;2022-09-28T07:04:58;6.63;;;3.50;;
11535;SDS011;5824;49.336;8.652;2022-09-28T07:07:23;4.43;;;3.20;;
11535;SDS011;5824;49.336;8.652;2022-09-28T07:09:52;7.07;;;3.07;;
11535;SDS011;5824;49.336;8.652;2022-09-28T07:12:18;7.80;;;3.33;;
11535;SDS011;5824;49.336;8.652;2022-09-28T07:14:44;5.43;;;2.83;;
11535;SDS011;5824;49.336;8.652;2022-09-28T07:17:10;4.43;;;2.90;;
11535;SDS011;5824;49.336;8.652;2022-09-28T07:19:35;5.40;;;3.33;;
11535;SDS011;5824;49.336;8.652;2022-09-28T07:22:01;4.97;;;2.90;;
11535;SDS011;5824;49.336;8.652;2022-09-28T07:24:27;5.53;;;2.90;;
11535;SDS011;5824;49.336;8.652;2022-09-28T07:26:54;6.73;;;2.90;;
11535;SDS011;5824;49.336;8.652;2022-09-28T07:29:20;5.40;;;3.20;;
11535;SDS011;5824;49.336;8.652;2022-09-28T07:31:45;6.70;;;3.27;;
11535;SDS011;5824;49.336;8.652;2022-09-28T07:34:11;10.10;;;3.73;;
11535;SDS011;5824;49.336;8.652;2022-09-28T07:36:36;5.43;;;3.50;;
11535;SDS011;5824;49.336;8.652;2022-09-28T07:39:03;7.90;;;3.30;;
11535;SDS011;5824;49.336;8.652;2022-09-28T07:41:28;7.13;;;3.20;;
11535;SDS011;5824;49.336;8.652;2022-09-28T07:44:00;7.20;;;4.00;;
11535;SDS011;5824;49.336;8.652;2022-09-28T07:46:29;4.60;;;3.53;;
11535;SDS011;5824;49.336;8.652;2022-09-28T07:48:56;9.53;;;3.27;;
11535;SDS011;5824;49.336;8.652;2022-09-28T07:51:22;5.87;;;3.60;;
11535;SDS011;5824;49.336;8.652;2022-09-28T07:53:47;4.07;;;3.13;;
11535;SDS011;5824;49.336;8.652;2022-09-28T07:56:13;7.20;;;2.70;;
11535;SDS011;5824;49.336;8.652;2022-09-28T07:58:41;4.80;;;2.47;;
11535;SDS011;5824;49.336;8.652;2022-09-28T08:01:08;6.60;;;3.20;;
11535;SDS011;5824;49.336;8.652;2022-09-28T08:03:36;4.47;;;2.03;;
11535;SDS011;5824;49.336;8.652;2022-09-28T08:06:04;4.40;;;1.93;;
11535;SDS011;5824;49.336;8.652;2022-09-28T08:08:34;5.20;;;2.03;;
11535;SDS011;5824;49.336;8.652;2022-09-28T08:11:00;3.87;;;2.07;;
11535;SDS011;5824;49.336;8.652;2022-09-28T08:13:26;3.87;;;2.00;;
11535;SDS011;5824;49.336;8.652;2022-09-28T08:15:53;5.30;;;2.53;;
11535;SDS011;5824;49.336;8.652;2022-09-28T08:18:19;3.50;;;2.47;;
11535;SDS011;5824;49.336;8.652;2022-09-28T08:20:45;6.93;;;2.40;;
11535;SDS011;5824;49.336;8.652;2022-09-28T08:23:30;2.87;;;1.90;;
11535;SDS011;5824;49.336;8.652;2022-09-28T08:25:56;3.57;;;2.07;;
11535;SDS011;5824;49.336;8.652;2022-09-28T08:28:22;3.87;;;1.80;;
11535;SDS011;5824;49.336;8.652;2022-09-28T08:30:48;3.33;;;2.13;;
11535;SDS011;5824;49.336;8.652;2022-09-28T08:33:15;4.57;;;2.00;;
11535;SDS011;5824;49.336;8.652;2022-09-28T08:35:42;3.27;;;1.57;;
11535;SDS011;5824;49.336;8.652;2022-09-28T08:38:08;3.63;;;1.70;;
11535;SDS011;5824;49.336;8.652;2022-09-28T08:40:41;4.40;;;1.90;;
11535;SDS011;5824;49.336;8.652;2022-09-28T08:43:19;5.43;;;2.20;;
11535;SDS011;5824;49.336;8.652;2022-09-28T08:45:55;3.93;;;2.00;;
11535;SDS011;5824;49.336;8.652;2022-09-28T08:48:24;4.80;;;1.67;;
11535;SDS011;5824;49.336;8.652;2022-09-28T08:51:14;3.47;;;1.80;;
11535;SDS011;5824;49.336;8.652;2022-09-28T08:53:53;4.30;;;2.10;;
11535;SDS011;5824;49.336;8.652;2022-09-28T08:59:17;2.97;;;1.60;;
11535;SDS011;5824;49.336;8.652;2022-09-28T09:01:47;2.63;;;1.70;;
11535;SDS011;5824;49.336;8.652;2022-09-28T09:04:19;3.53;;;1.67;;
11535;SDS011;5824;49.336;8.652;2022-09-28T09:06:50;5.50;;;1.70;;
11535;SDS011;5824;49.336;8.652;2022-09-28T09:09:30;3.03;;;1.80;;
11535;SDS011;5824;49.336;8.652;2022-09-28T09:12:32;5.23;;;2.07;;
11535;SDS011;5824;49.336;8.652;2022-09-28T09:17:57;3.27;;;1.87;;
11535;SDS011;5824;49.336;8.652;2022-09-28T09:21:00;5.10;;;2.10;;
11535;SDS011;5824;49.336;8.652;2022-09-28T09:23:55;4.60;;;1.83;;
11535;SDS011;5824;49.336;8.652;2022-09-28T09:48:43;4.23;;;1.77;;
11535;SDS011;5824;49.336;8.652;2022-09-28T09:59:31;3.57;;;1.70;;
11535;SDS011;5824;49.336;8.652;2022-09-28T10:04:50;3.10;;;1.43;;
11535;SDS011;5824;49.336;8.652;2022-09-28T10:07:49;3.83;;;1.87;;
11535;SDS011;5824;49.336;8.652;2022-09-28T10:12:59;4.73;;;1.80;;
11535;SDS011;5824;49.336;8.652;2022-09-28T10:15:26;5.03;;;2.07;;
11535;SDS011;5824;49.336;8.652;2022-09-28T10:17:53;2.37;;;1.60;;
11535;SDS011;5824;49.336;8.652;2022-09-28T10:20:21;3.87;;;1.80;;
11535;SDS011;5824;49.336;8.652;2022-09-28T10:22:49;3.20;;;1.80;;
11535;SDS011;5824;49.336;8.652;2022-09-28T10:25:16;1.70;;;1.47;;
11535;SDS011;5824;49.336;8.652;2022-09-28T10:27:43;4.80;;;2.00;;
11535;SDS011;5824;49.336;8.652;2022-09-28T10:30:16;2.30;;;1.63;;
11535;SDS011;5824;49.336;8.652;2022-09-28T10:32:45;6.40;;;1.80;;
11535;SDS011;5824;49.336;8.652;2022-09-28T10:38:34;2.93;;;1.63;;
11535;SDS011;5824;49.336;8.652;2022-09-28T10:40:46;4.10;;;2.00;;
11535;SDS011;5824;49.336;8.652;2022-09-28T10:43:22;7.77;;;3.47;;
11535;SDS011;5824;49.336;8.652;2022-09-28T10:46:06;7.47;;;2.10;;
11535;SDS011;5824;49.336;8.652;2022-09-28T10:48:48;4.93;;;1.70;;
11535;SDS011;5824;49.336;8.652;2022-09-28T10:51:20;4.93;;;1.70;;
11535;SDS011;5824;49.336;8.652;2022-09-28T10:54:15;3.60;;;1.87;;
11535;SDS011;5824;49.336;8.652;2022-09-28T10:56:43;3.03;;;1.80;;
11535;SDS011;5824;49.336;8.652;2022-09-28T11:01:51;5.10;;;1.87;;
11535;SDS011;5824;49.336;8.652;2022-09-28T11:04:19;4.63;;;1.83;;
11535;SDS011;5824;49.336;8.652;2022-09-28T11:06:48;4.23;;;1.90;;
11535;SDS011;5824;49.336;8.652;2022-09-28T11:11:55;3.53;;;1.50;;
11535;SDS011;5824;49.336;8.652;2022-09-28T11:14:37;2.50;;;1.60;;
11535;SDS011;5824;49.336;8.652;2022-09-28T11:17:19;5.10;;;1.87;;
11535;SDS011;5824;49.336;8.652;2022-09-28T11:19:48;3.50;;;1.77;;
11535;SDS011;5824;49.336;8.652;2022-09-28T11:22:28;3.40;;;2.10;;
11535;SDS011;5824;49.336;8.652;2022-09-28T11:25:15;4.50;;;1.83;;
11535;SDS011;5824;49.336;8.652;2022-09-28T11:27:53;4.17;;;1.70;;
11535;SDS011;5824;49.336;8.652;2022-09-28T11:33:11;3.93;;;1.90;;
11535;SDS011;5824;49.336;8.652;2022-09-28T11:35:44;3.47;;;1.70;;
11535;SDS011;5824;49.336;8.652;2022-09-28T11:38:38;4.67;;;1.77;;
11535;SDS011;5824;49.336;8.652;2022-09-28T11:46:24;3.08;;;1.70;;
11535;SDS011;5824;49.336;8.652;2022-09-28T11:51:44;3.55;;;1.52;;
11535;SDS011;5824;49.336;8.652;2022-09-28T11:54:28;5.22;;;1.77;;
11535;SDS011;5824;49.336;8.652;2022-09-28T11:57:07;4.22;;;1.50;;
11535;SDS011;5824;49.336;8.652;2022-09-28T11:59:41;2.83;;;1.50;;
11535;SDS011;5824;49.336;8.652;2022-09-28T12:02:28;2.60;;;1.40;;
11535;SDS011;5824;49.336;8.652;2022-09-28T12:05:07;3.10;;;1.50;;
11535;SDS011;5824;49.336;8.652;2022-09-28T12:07:38;3.03;;;1.50;;
11535;SDS011;5824;49.336;8.652;2022-09-28T12:10:15;3.77;;;1.57;;
11535;SDS011;5824;49.336;8.652;2022-09-28T12:17:53;5.63;;;1.33;;
11535;SDS011;5824;49.336;8.652;2022-09-28T12:20:23;5.97;;;1.67;;
11535;SDS011;5824;49.336;8.652;2022-09-28T12:25:48;4.80;;;1.40;;
11535;SDS011;5824;49.336;8.652;2022-09-28T12:28:38;3.30;;;1.50;;
11535;SDS011;5824;49.336;8.652;2022-09-28T12:31:10;2.30;;;1.30;;
11535;SDS011;5824;49.336;8.652;2022-09-28T12:33:44;2.20;;;1.30;;
11535;SDS011;5824;49.336;8.652;2022-09-28T12:39:02;6.70;;;1.67;;
11535;SDS011;5824;49.336;8.652;2022-09-28T12:53:19;4.47;;;1.47;;
11535;SDS011;5824;49.336;8.652;2022-09-28T12:59:02;4.43;;;1.60;;
11535;SDS011;5824;49.336;8.652;2022-09-28T13:01:52;3.10;;;1.50;;
11535;SDS011;5824;49.336;8.652;2022-09-28T13:07:21;3.27;;;1.60;;
11535;SDS011;5824;49.336;8.652;2022-09-28T13:18:24;3.80;;;1.40;;
11535;SDS011;5824;49.336;8.652;2022-09-28T13:23:45;3.57;;;1.40;;
11535;SDS011;5824;49.336;8.652;2022-09-28T13:29:16;2.13;;;1.30;;
11535;SDS011;5824;49.336;8.652;2022-09-28T13:32:04;3.60;;;1.40;;
11535;SDS011;5824;49.336;8.652;2022-09-28T13:34:32;4.60;;;1.60;;
11535;SDS011;5824;49.336;8.652;2022-09-28T13:37:07;2.60;;;1.30;;
11535;SDS011;5824;49.336;8.652;2022-09-28T13:39:52;2.93;;;1.63;;
11535;SDS011;5824;49.336;8.652;2022-09-28T13:45:10;2.30;;;1.17;;
11535;SDS011;5824;49.336;8.652;2022-09-28T13:56:12;2.27;;;1.50;;
11535;SDS011;5824;49.336;8.652;2022-09-28T13:59:06;2.90;;;1.50;;
11535;SDS011;5824;49.336;8.652;2022-09-28T14:02:08;5.33;;;1.87;;
11535;SDS011;5824;49.336;8.652;2022-09-28T14:10:26;2.87;;;1.40;;
11535;SDS011;5824;49.336;8.652;2022-09-28T14:16:21;4.17;;;2.03;;
11535;SDS011;5824;49.336;8.652;2022-09-28T14:18:54;4.23;;;2.03;;
11535;SDS011;5824;49.336;8.652;2022-09-28T14:30:06;3.80;;;1.90;;
11535;SDS011;5824;49.336;8.652;2022-09-28T14:32:35;3.50;;;1.63;;
11535;SDS011;5824;49.336;8.652;2022-09-28T14:35:03;3.33;;;1.70;;
11535;SDS011;5824;49.336;8.652;2022-09-28T14:37:32;3.43;;;1.87;;
11535;SDS011;5824;49.336;8.652;2022-09-28T14:53:55;3.00;;;2.13;;
11535;SDS011;5824;49.336;8.652;2022-09-28T15:01:55;2.00;;;1.63;;
11535;SDS011;5824;49.336;8.652;2022-09-28T15:04:26;6.40;;;2.50;;
11535;SDS011;5824;49.336;8.652;2022-09-28T15:06:53;3.40;;;2.07;;
11535;SDS011;5824;49.336;8.652;2022-09-28T15:09:29;4.90;;;2.07;;
11535;SDS011;5824;49.336;8.652;2022-09-28T15:14:39;4.90;;;2.40;;
11535;SDS011;5824;49.336;8.652;2022-09-28T15:17:15;3.47;;;1.90;;
11535;SDS011;5824;49.336;8.652;2022-09-28T15:19:52;3.50;;;1.90;;
11535;SDS011;5824;49.336;8.652;2022-09-28T15:22:33;2.50;;;1.67;;
11535;SDS011;5824;49.336;8.652;2022-09-28T15:25:00;2.67;;;1.93;;
11535;SDS011;5824;49.336;8.652;2022-09-28T15:27:36;7.60;;;2.10;;
11535;SDS011;5824;49.336;8.652;2022-09-28T15:32:40;5.47;;;1.77;;
11535;SDS011;5824;49.336;8.652;2022-09-28T15:35:10;3.10;;;1.87;;
11535;SDS011;5824;49.336;8.652;2022-09-28T15:37:41;4.90;;;2.33;;
11535;SDS011;5824;49.336;8.652;2022-09-28T15:40:11;3.20;;;2.10;;
11535;SDS011;5824;49.336;8.652;2022-09-28T15:42:40;4.00;;;2.57;;
11535;SDS011;5824;49.336;8.652;2022-09-28T15:47:37;3.80;;;2.17;;
11535;SDS011;5824;49.336;8.652;2022-09-28T15:50:05;2.70;;;1.43;;
11535;SDS011;5824;49.336;8.652;2022-09-28T15:52:45;4.30;;;1.80;;
11535;SDS011;5824;49.336;8.652;2022-09-28T15:55:31;3.43;;;2.43;;
11535;SDS011;5824;49.336;8.652;2022-09-28T15:58:18;6.67;;;2.63;;
11535;SDS011;5824;49.336;8.652;2022-09-28T16:00:46;8.10;;;2.40;;
11535;SDS011;5824;49.336;8.652;2022-09-28T16:11:08;5.97;;;3.67;;
11535;SDS011;5824;49.336;8.652;2022-09-28T16:13:59;6.33;;;3.30;;
11535;SDS011;5824;49.336;8.652;2022-09-28T16:16:32;3.10;;;2.27;;
11535;SDS011;5824;49.336;8.652;2022-09-28T16:19:05;4.03;;;1.70;;
11535;SDS011;5824;49.336;8.652;2022-09-28T16:21:45;2.43;;;1.33;;
11535;SDS011;5824;49.336;8.652;2022-09-28T16:24:19;4.37;;;1.70;;
11535;SDS011;5824;49.336;8.652;2022-09-28T16:26:57;3.60;;;2.00;;
11535;SDS011;5824;49.336;8.652;2022-09-28T16:29:40;4.13;;;2.10;;
11535;SDS011;5824;49.336;8.652;2022-09-28T16:37:34;2.40;;;1.97;;
11535;SDS011;5824;49.336;8.652;2022-09-28T16:40:00;3.20;;;2.40;;
11535;SDS011;5824;49.336;8.652;2022-09-28T16:42:26;3.20;;;1.93;;
11535;SDS011;5824;49.336;8.652;2022-09-28T16:44:52;5.33;;;1.90;;
11535;SDS011;5824;49.336;8.652;2022-09-28T16:47:20;3.50;;;1.87;;
11535;SDS011;5824;49.336;8.652;2022-09-28T16:49:48;3.90;;;1.83;;
11535;SDS011;5824;49.336;8.652;2022-09-28T16:52:15;3.20;;;1.90;;
11535;SDS011;5824;49.336;8.652;2022-09-28T16:55:01;4.53;;;1.73;;
11535;SDS011;5824;49.336;8.652;2022-09-28T16:57:42;4.70;;;2.10;;
11535;SDS011;5824;49.336;8.652;2022-09-28T17:00:30;8.73;;;2.70;;
11535;SDS011;5824;49.336;8.652;2022-09-28T17:02:56;3.27;;;2.93;;
11535;SDS011;5824;49.336;8.652;2022-09-28T17:05:22;5.37;;;3.23;;
11535;SDS011;5824;49.336;8.652;2022-09-28T17:07:48;3.80;;;2.63;;
11535;SDS011;5824;49.336;8.652;2022-09-28T17:13:07;3.80;;;1.93;;
11535;SDS011;5824;49.336;8.652;2022-09-28T17:15:36;4.20;;;2.20;;
11535;SDS011;5824;49.336;8.652;2022-09-28T17:18:04;4.70;;;2.30;;
11535;SDS011;5824;49.336;8.652;2022-09-28T17:20:30;3.20;;;2.00;;
11535;SDS011;5824;49.336;8.652;2022-09-28T17:22:57;4.00;;;2.17;;
11535;SDS011;5824;49.336;8.652;2022-09-28T17:25:23;3.23;;;2.50;;
11535;SDS011;5824;49.336;8.652;2022-09-28T17:27:50;6.20;;;3.70;;
11535;SDS011;5824;49.336;8.652;2022-09-28T17:30:18;9.30;;;5.20;;
11535;SDS011;5824;49.336;8.652;2022-09-28T17:32:44;6.03;;;3.20;;
11535;SDS011;5824;49.336;8.652;2022-09-28T17:35:11;7.77;;;4.50;;
11535;SDS011;5824;49.336;8.652;2022-09-28T17:37:38;8.00;;;4.43;;
11535;SDS011;5824;49.336;8.652;2022-09-28T17:42:42;5.03;;;2.60;;
11535;SDS011;5824;49.336;8.652;2022-09-28T17:45:08;3.00;;;2.00;;
11535;SDS011;5824;49.336;8.652;2022-09-28T17:47:33;6.83;;;1.93;;
11535;SDS011;5824;49.336;8.652;2022-09-28T17:49:59;4.33;;;2.70;;
11535;SDS011;5824;49.336;8.652;2022-09-28T17:52:24;5.30;;;2.47;;
11535;SDS011;5824;49.336;8.652;2022-09-28T17:54:50;8.10;;;1.90;;
11535;SDS011;5824;49.336;8.652;2022-09-28T17:57:15;8.70;;;3.50;;
11535;SDS011;5824;49.336;8.652;2022-09-28T17:59:41;2.80;;;2.50;;
11535;SDS011;5824;49.336;8.652;2022-09-28T18:02:10;4.30;;;2.77;;
11535;SDS011;5824;49.336;8.652;2022-09-28T18:04:35;5.27;;;2.83;;
11535;SDS011;5824;49.336;8.652;2022-09-28T18:07:01;6.00;;;2.93;;
11535;SDS011;5824;49.336;8.652;2022-09-28T18:09:27;5.43;;;2.90;;
11535;SDS011;5824;49.336;8.652;2022-09-28T18:11:58;5.70;;;2.60;;
11535;SDS011;5824;49.336;8.652;2022-09-28T18:14:27;5.70;;;2.67;;
11535;SDS011;5824;49.336;8.652;2022-09-28T18:16:54;6.33;;;2.33;;
11535;SDS011;5824;49.336;8.652;2022-09-28T18:19:19;3.53;;;2.70;;
11535;SDS011;5824;49.336;8.652;2022-09-28T18:21:45;2.10;;;1.90;;
11535;SDS011;5824;49.336;8.652;2022-09-28T18:24:10;5.30;;;2.00;;
11535;SDS011;5824;49.336;8.652;2022-09-28T18:26:36;5.27;;;2.40;;
11535;SDS011;5824;49.336;8.652;2022-09-28T18:29:01;4.67;;;2.57;;
11535;SDS011;5824;49.336;8.652;2022-09-28T18:31:27;5.30;;;2.80;;
11535;SDS011;5824;49.336;8.652;2022-09-28T18:33:57;6.33;;;2.60;;
11535;SDS011;5824;49.336;8.652;2022-09-28T18:36:28;3.40;;;2.53;;
11535;SDS011;5824;49.336;8.652;2022-09-28T18:38:54;3.03;;;2.50;;
11535;SDS011;5824;49.336;8.652;2022-09-28T18:41:21;4.00;;;2.90;;
11535;SDS011;5824;49.336;8.652;2022-09-28T18:43:47;7.03;;;2.50;;
11535;SDS011;5824;49.336;8.652;2022-09-28T18:46:13;6.93;;;2.93;;
11535;SDS011;5824;49.336;8.652;2022-09-28T18:48:39;3.43;;;2.47;;
11535;SDS011;5824;49.336;8.652;2022-09-28T18:51:08;5.07;;;2.67;;
11535;SDS011;5824;49.336;8.652;2022-09-28T18:53:35;4.03;;;2.70;;
11535;SDS011;5824;49.336;8.652;2022-09-28T18:56:08;5.30;;;2.80;;